THZ weather

Tahoua Airport
Tahoua, Tahoua Region, Niger

Public forecast

Using degrees Celsius for public forecast. Weather courtesy of forecast.io.

METAR (pilot weather report)

Report is more than 6 hours old.

Retrieved 2019/02/20 18:00 UTC (8 hours ago):

DRRT 201800Z 04004KT 2000 DU NSC 32/01 Q1011

TAF (pilot weather forecast)

Forecast is more than 12 hours old.

Closest forecast is Sadiq Abubakar III International Airport, 117.7 nm (218.0 km) S. Retrieved 2019/02/20 00:21 UTC (1 day ago):

TAF DNSO 202130Z 2100/2206 09008KT 3000 HZ NSC TEMPO 2106/2112 1500